Time;durP1;ratioP1;P1;durP2;ratioP2;P2;SDS_P1;SDS_P2;PMS_P1;PMS_P2;Temp;Humidity;BMP_temperature;BMP_pressure;BME280_temperature;BME280_humidity;BME280_pressure;Samples;Min_cycle;Max_cycle;Signal;HPM_P1;HPM_P2
2022/03/16 00:00:01;;;;;;;17.83;9.20;;;;;;;;;;4977392;28;20050;-75
2022/03/16 00:02:38;;;;;;;13.95;8.43;;;;;;;;;;4986133;28;20140;-74
2022/03/16 00:05:06;;;;;;;17.60;9.32;;;;;;;;;;4980163;28;20045;-74
2022/03/16 00:07:33;;;;;;;13.10;8.63;;;;;;;;;;5013867;28;20041;-74
2022/03/16 00:10:01;;;;;;;14.50;8.73;;;;;;;;;;4995896;28;20050;-73
2022/03/16 00:12:28;;;;;;;14.50;8.98;;;;;;;;;;4996316;28;20037;-74
2022/03/16 00:14:56;;;;;;;17.33;8.38;;;;;;;;;;5013419;28;20054;-74
2022/03/16 00:17:23;;;;;;;20.20;7.95;;;;;;;;;;5013812;28;20042;-75
2022/03/16 00:19:51;;;;;;;11.57;7.28;;;;;;;;;;5013906;28;20042;-76
2022/03/16 00:22:18;;;;;;;16.13;7.63;;;;;;;;;;5014608;28;20041;-74
2022/03/16 00:24:46;;;;;;;15.48;6.82;;;;;;;;;;5014674;28;20046;-73
2022/03/16 00:27:14;;;;;;;18.67;7.40;;;;;;;;;;4997414;28;20069;-74
2022/03/16 00:29:41;;;;;;;13.13;6.75;;;;;;;;;;5014396;28;20048;-74
2022/03/16 00:32:10;;;;;;;17.38;7.03;;;;;;;;;;5014373;28;20053;-77
2022/03/16 00:34:37;;;;;;;14.40;7.05;;;;;;;;;;4996367;28;20055;-73
2022/03/16 00:37:05;;;;;;;9.90;7.07;;;;;;;;;;4996598;28;20137;-74
2022/03/16 00:39:33;;;;;;;11.38;6.95;;;;;;;;;;4996699;28;20050;-73
2022/03/16 00:42:03;;;;;;;12.32;6.28;;;;;;;;;;5014215;28;20038;-74
2022/03/16 00:44:34;;;;;;;17.15;6.60;;;;;;;;;;4996690;28;20057;-78
2022/03/16 00:47:03;;;;;;;13.60;6.60;;;;;;;;;;4996161;28;20046;-73
2022/03/16 00:49:31;;;;;;;11.95;6.22;;;;;;;;;;5013854;28;20143;-74
2022/03/16 00:51:59;;;;;;;12.85;5.78;;;;;;;;;;4996696;28;20112;-74
2022/03/16 00:54:27;;;;;;;9.68;5.80;;;;;;;;;;4996255;28;20034;-73
2022/03/16 00:56:55;;;;;;;14.15;6.20;;;;;;;;;;5028510;28;20045;-73
2022/03/16 00:59:23;;;;;;;10.23;5.63;;;;;;;;;;5013706;28;20034;-74
2022/03/16 01:01:50;;;;;;;10.90;5.40;;;;;;;;;;4996268;28;20413;-75
2022/03/16 01:04:18;;;;;;;11.02;5.68;;;;;;;;;;4996017;28;20042;-77
2022/03/16 01:06:49;;;;;;;9.05;5.38;;;;;;;;;;5012911;28;20052;-74
2022/03/16 01:09:19;;;;;;;13.90;5.78;;;;;;;;;;4995801;28;20049;-73
2022/03/16 01:11:46;;;;;;;11.55;5.75;;;;;;;;;;4995689;28;20516;-74
2022/03/16 01:14:14;;;;;;;10.93;5.68;;;;;;;;;;5011871;28;20133;-73
2022/03/16 01:16:41;;;;;;;17.95;6.70;;;;;;;;;;4996148;28;20070;-78
2022/03/16 01:19:14;;;;;;;17.05;6.57;;;;;;;;;;4996179;28;20065;-74
2022/03/16 01:21:44;;;;;;;11.38;6.10;;;;;;;;;;4995487;28;20041;-73
2022/03/16 01:24:13;;;;;;;16.55;6.47;;;;;;;;;;5012302;28;20053;-74
2022/03/16 01:26:43;;;;;;;14.10;7.18;;;;;;;;;;4996401;28;20046;-73
2022/03/16 01:29:10;;;;;;;13.88;7.10;;;;;;;;;;5013748;28;20049;-74
2022/03/16 01:31:38;;;;;;;15.18;8.05;;;;;;;;;;5012142;28;20386;-75
2022/03/16 01:34:05;;;;;;;10.73;6.88;;;;;;;;;;4995498;28;20136;-75
2022/03/16 01:36:33;;;;;;;12.48;7.15;;;;;;;;;;5013230;28;20114;-73
2022/03/16 01:39:00;;;;;;;13.95;7.32;;;;;;;;;;4979386;28;20041;-75
2022/03/16 01:41:28;;;;;;;14.73;6.82;;;;;;;;;;4995480;28;20046;-77
2022/03/16 01:43:57;;;;;;;13.20;6.60;;;;;;;;;;4995642;28;20061;-77
2022/03/16 01:46:27;;;;;;;14.65;6.82;;;;;;;;;;4995286;28;20058;-74
2022/03/16 01:48:55;;;;;;;14.00;6.65;;;;;;;;;;4995556;28;20069;-75
2022/03/16 01:51:23;;;;;;;12.85;7.07;;;;;;;;;;5013030;28;20125;-73
2022/03/16 01:53:50;;;;;;;12.18;6.43;;;;;;;;;;5028232;28;20037;-73
2022/03/16 01:56:19;;;;;;;14.57;6.43;;;;;;;;;;4976763;28;20054;-74
2022/03/16 01:58:47;;;;;;;16.17;6.22;;;;;;;;;;4975538;28;20042;-74
2022/03/16 02:01:15;;;;;;;10.65;6.22;;;;;;;;;;4975171;28;20710;-74
2022/03/16 02:03:43;;;;;;;12.38;5.88;;;;;;;;;;4993305;28;20046;-77
2022/03/16 02:06:12;;;;;;;7.80;5.40;;;;;;;;;;4976271;28;20050;-73
2022/03/16 02:08:43;;;;;;;7.28;5.00;;;;;;;;;;4976123;28;20422;-73
2022/03/16 02:11:10;;;;;;;13.40;5.50;;;;;;;;;;4992890;28;20391;-73
2022/03/16 02:13:38;;;;;;;10.38;5.05;;;;;;;;;;4993084;28;20041;-74
2022/03/16 02:16:07;;;;;;;11.95;5.63;;;;;;;;;;4992760;28;20062;-74
2022/03/16 02:18:36;;;;;;;10.65;4.93;;;;;;;;;;4995856;28;20045;-74
2022/03/16 02:21:04;;;;;;;10.43;5.20;;;;;;;;;;4996906;28;20344;-73
2022/03/16 02:23:31;;;;;;;9.68;5.25;;;;;;;;;;4979903;28;20053;-73
2022/03/16 02:25:59;;;;;;;15.18;5.03;;;;;;;;;;4979776;28;20054;-73
2022/03/16 02:28:27;;;;;;;8.10;4.78;;;;;;;;;;4997225;28;20125;-73
2022/03/16 02:30:56;;;;;;;7.43;4.90;;;;;;;;;;4996951;28;20486;-73
2022/03/16 02:33:25;;;;;;;9.15;5.35;;;;;;;;;;4996814;28;20042;-75
2022/03/16 02:35:54;;;;;;;11.02;4.50;;;;;;;;;;4996750;28;20039;-77
2022/03/16 02:38:24;;;;;;;11.15;4.53;;;;;;;;;;4979685;28;20065;-73
2022/03/16 02:40:52;;;;;;;7.65;5.07;;;;;;;;;;4996629;28;20050;-73
2022/03/16 02:43:19;;;;;;;10.40;5.43;;;;;;;;;;4979809;28;20069;-77
2022/03/16 02:45:46;;;;;;;12.55;6.15;;;;;;;;;;4979346;28;20046;-76
2022/03/16 02:48:14;;;;;;;10.77;5.82;;;;;;;;;;4979683;28;20494;-73
2022/03/16 02:50:42;;;;;;;11.90;5.00;;;;;;;;;;4996762;28;20061;-74
2022/03/16 02:53:09;;;;;;;7.28;4.88;;;;;;;;;;4995131;28;20038;-73
2022/03/16 02:55:45;;;;;;;10.30;4.80;;;;;;;;;;4996812;28;20045;-74
2022/03/16 02:58:13;;;;;;;8.75;4.47;;;;;;;;;;4978878;28;20046;-73
2022/03/16 03:00:41;;;;;;;12.05;5.47;;;;;;;;;;4996838;28;20049;-73
2022/03/16 03:03:09;;;;;;;11.13;5.78;;;;;;;;;;4996543;28;20050;-75
2022/03/16 03:05:38;;;;;;;8.38;5.75;;;;;;;;;;4979470;28;20069;-73
2022/03/16 03:08:06;;;;;;;10.95;5.65;;;;;;;;;;4979523;28;20058;-74
2022/03/16 03:10:33;;;;;;;9.88;5.85;;;;;;;;;;4978475;28;20072;-74
2022/03/16 03:13:01;;;;;;;7.03;4.78;;;;;;;;;;4978711;28;20129;-74
2022/03/16 03:15:28;;;;;;;10.88;5.10;;;;;;;;;;4996109;28;20042;-73
2022/03/16 03:17:56;;;;;;;9.90;4.75;;;;;;;;;;4996115;28;20121;-77
2022/03/16 03:20:23;;;;;;;5.30;4.00;;;;;;;;;;4996440;28;20030;-73
2022/03/16 03:22:51;;;;;;;6.47;3.70;;;;;;;;;;4996329;28;20122;-77
2022/03/16 03:25:20;;;;;;;7.10;4.35;;;;;;;;;;4978593;28;20093;-77
2022/03/16 03:27:47;;;;;;;8.57;4.40;;;;;;;;;;4996252;28;20117;-73
2022/03/16 03:30:15;;;;;;;7.90;4.03;;;;;;;;;;4978044;28;20042;-75
2022/03/16 03:32:42;;;;;;;5.53;4.20;;;;;;;;;;4978583;28;20034;-74
2022/03/16 03:35:10;;;;;;;6.05;3.58;;;;;;;;;;4978435;28;20105;-73
2022/03/16 03:37:37;;;;;;;5.25;3.42;;;;;;;;;;4996210;28;20047;-73
2022/03/16 03:40:06;;;;;;;3.75;3.30;;;;;;;;;;4995801;28;20074;-77
2022/03/16 03:42:34;;;;;;;4.63;3.58;;;;;;;;;;4995743;28;20093;-73
2022/03/16 03:45:01;;;;;;;7.32;3.45;;;;;;;;;;4978545;28;20046;-73
2022/03/16 03:47:29;;;;;;;4.45;3.42;;;;;;;;;;4978315;28;20102;-73
2022/03/16 03:49:57;;;;;;;8.30;4.22;;;;;;;;;;4996185;28;20057;-75
2022/03/16 03:52:27;;;;;;;6.82;3.67;;;;;;;;;;4995474;28;20513;-73
2022/03/16 03:54:54;;;;;;;6.63;3.60;;;;;;;;;;4995454;28;20034;-74
2022/03/16 03:57:22;;;;;;;4.88;3.83;;;;;;;;;;4978008;28;20117;-75
2022/03/16 03:59:49;;;;;;;8.50;3.30;;;;;;;;;;4995940;28;20046;-73
2022/03/16 04:02:17;;;;;;;11.23;5.35;;;;;;;;;;4977753;28;20042;-73
2022/03/16 04:04:44;;;;;;;14.40;8.13;;;;;;;;;;4995413;28;20046;-73
2022/03/16 04:07:12;;;;;;;9.07;3.78;;;;;;;;;;4978289;28;20053;-73
2022/03/16 04:09:41;;;;;;;7.68;4.00;;;;;;;;;;4995324;28;20617;-73
2022/03/16 04:12:09;;;;;;;8.07;4.07;;;;;;;;;;4995349;28;20077;-75
2022/03/16 04:14:37;;;;;;;8.13;4.75;;;;;;;;;;4994827;28;20086;-74
2022/03/16 04:17:06;;;;;;;10.18;4.47;;;;;;;;;;4995417;28;20109;-75
2022/03/16 04:19:34;;;;;;;8.18;4.60;;;;;;;;;;4995107;28;20074;-73
2022/03/16 04:22:02;;;;;;;10.10;4.53;;;;;;;;;;4994546;28;20126;-77
2022/03/16 04:24:29;;;;;;;11.55;6.22;;;;;;;;;;4977736;28;20137;-73
2022/03/16 04:26:58;;;;;;;9.73;6.93;;;;;;;;;;4977301;28;20061;-73
2022/03/16 04:29:25;;;;;;;10.85;6.50;;;;;;;;;;4995437;28;20038;-77
2022/03/16 04:31:53;;;;;;;12.20;6.53;;;;;;;;;;4994466;28;20046;-78
2022/03/16 04:34:20;;;;;;;10.93;5.82;;;;;;;;;;4994435;28;20134;-77
2022/03/16 04:36:48;;;;;;;13.48;6.43;;;;;;;;;;4994829;28;20051;-73
2022/03/16 04:39:16;;;;;;;9.63;6.28;;;;;;;;;;4994930;28;20039;-74
2022/03/16 04:41:44;;;;;;;12.77;5.95;;;;;;;;;;4993904;28;20042;-75
2022/03/16 04:44:15;;;;;;;7.70;5.80;;;;;;;;;;4977233;28;20146;-73
2022/03/16 04:46:42;;;;;;;8.52;5.20;;;;;;;;;;4977298;28;20070;-74
2022/03/16 04:49:10;;;;;;;11.52;5.70;;;;;;;;;;4977690;28;20509;-75
2022/03/16 04:51:37;;;;;;;8.82;5.75;;;;;;;;;;4994313;28;20481;-73
2022/03/16 04:54:06;;;;;;;9.57;5.32;;;;;;;;;;4994386;28;20044;-77
2022/03/16 04:56:35;;;;;;;8.18;5.70;;;;;;;;;;4994571;28;20117;-74
2022/03/16 04:59:03;;;;;;;10.82;5.68;;;;;;;;;;4994147;28;20038;-75
2022/03/16 05:01:31;;;;;;;6.88;5.20;;;;;;;;;;4976690;28;20043;-75
2022/03/16 05:03:58;;;;;;;8.95;5.07;;;;;;;;;;4977135;28;20450;-77
2022/03/16 05:06:26;;;;;;;10.23;5.68;;;;;;;;;;4976620;28;20495;-73
2022/03/16 05:08:54;;;;;;;8.15;5.28;;;;;;;;;;4994067;28;20080;-77
2022/03/16 05:11:22;;;;;;;9.13;4.93;;;;;;;;;;4959808;28;20398;-73
2022/03/16 05:13:52;;;;;;;10.20;5.45;;;;;;;;;;4976308;28;20116;-78
2022/03/16 05:16:20;;;;;;;10.20;5.05;;;;;;;;;;4993945;28;20050;-73
2022/03/16 05:18:48;;;;;;;8.77;5.40;;;;;;;;;;4994051;28;20050;-77
2022/03/16 05:21:16;;;;;;;10.27;5.53;;;;;;;;;;4976822;28;20073;-74
2022/03/16 05:23:43;;;;;;;11.00;4.93;;;;;;;;;;4993687;28;20588;-75
2022/03/16 05:26:11;;;;;;;9.85;5.20;;;;;;;;;;4976374;28;20046;-75
2022/03/16 05:28:38;;;;;;;7.68;6.05;;;;;;;;;;4976310;28;20050;-76
2022/03/16 05:31:06;;;;;;;14.57;5.40;;;;;;;;;;4993242;28;20414;-77
2022/03/16 05:33:33;;;;;;;4.65;4.07;;;;;;;;;;4993554;28;20074;-74
2022/03/16 05:36:00;;;;;;;8.13;3.83;;;;;;;;;;4993426;28;20634;-74
2022/03/16 05:38:28;;;;;;;11.52;4.32;;;;;;;;;;4975811;28;20103;-73
2022/03/16 05:40:56;;;;;;;11.10;3.80;;;;;;;;;;4976311;28;20042;-74
2022/03/16 05:43:23;;;;;;;9.43;4.13;;;;;;;;;;4993652;28;20034;-75
2022/03/16 05:45:51;;;;;;;7.43;3.60;;;;;;;;;;4993067;28;20039;-73
2022/03/16 05:48:18;;;;;;;7.10;3.95;;;;;;;;;;4976428;28;20046;-77
2022/03/16 05:50:46;;;;;;;7.78;4.20;;;;;;;;;;4975758;28;20658;-73
2022/03/16 05:53:16;;;;;;;5.47;3.40;;;;;;;;;;4975811;28;20041;-74
2022/03/16 05:55:44;;;;;;;6.88;3.20;;;;;;;;;;4978514;28;20072;-74
2022/03/16 05:58:12;;;;;;;6.53;3.30;;;;;;;;;;4992922;28;20432;-77
2022/03/16 06:00:43;;;;;;;8.48;3.90;;;;;;;;;;4977028;28;20121;-73
2022/03/16 06:03:11;;;;;;;9.35;3.97;;;;;;;;;;4993528;28;20070;-74
2022/03/16 06:05:39;;;;;;;6.43;3.60;;;;;;;;;;4993197;28;20545;-77
2022/03/16 06:08:06;;;;;;;6.38;3.90;;;;;;;;;;4976092;28;20069;-74
2022/03/16 06:10:36;;;;;;;5.25;3.13;;;;;;;;;;4991433;28;20050;-72
2022/03/16 06:13:07;;;;;;;4.30;3.10;;;;;;;;;;4993042;28;20488;-72
2022/03/16 06:15:42;;;;;;;7.55;3.25;;;;;;;;;;4975730;28;20056;-72
2022/03/16 06:18:11;;;;;;;9.27;3.40;;;;;;;;;;4993353;28;20045;-72
2022/03/16 06:20:39;;;;;;;4.75;3.33;;;;;;;;;;4993134;28;20042;-75
2022/03/16 06:23:08;;;;;;;6.95;3.53;;;;;;;;;;4975909;28;20062;-75
2022/03/16 06:25:40;;;;;;;5.50;3.22;;;;;;;;;;4992787;28;20057;-72
2022/03/16 06:28:07;;;;;;;10.98;3.45;;;;;;;;;;4993029;28;20462;-76
2022/03/16 06:30:35;;;;;;;9.80;3.30;;;;;;;;;;5010687;28;20121;-72
2022/03/16 06:33:02;;;;;;;7.05;3.30;;;;;;;;;;5010644;28;20405;-72
2022/03/16 06:35:30;;;;;;;4.68;2.90;;;;;;;;;;5008370;28;20030;-75
2022/03/16 06:37:57;;;;;;;8.50;3.15;;;;;;;;;;4991392;28;20058;-76
2022/03/16 06:40:25;;;;;;;8.35;2.70;;;;;;;;;;4995818;28;20041;-76
2022/03/16 06:42:53;;;;;;;5.63;3.00;;;;;;;;;;4989781;28;20049;-73
2022/03/16 06:45:21;;;;;;;5.03;2.97;;;;;;;;;;4991436;28;20039;-73
2022/03/16 06:47:54;;;;;;;10.45;3.72;;;;;;;;;;4992713;28;20057;-75
2022/03/16 06:50:22;;;;;;;6.80;3.33;;;;;;;;;;4980635;28;20120;-72
2022/03/16 06:52:49;;;;;;;7.68;4.00;;;;;;;;;;5001242;28;20494;-73
2022/03/16 06:55:17;;;;;;;8.00;4.20;;;;;;;;;;5000581;28;20034;-75
2022/03/16 06:57:44;;;;;;;8.05;4.45;;;;;;;;;;4982595;28;20133;-75
2022/03/16 07:00:14;;;;;;;11.18;4.05;;;;;;;;;;4977012;28;20403;-77
2022/03/16 07:02:49;;;;;;;7.85;4.38;;;;;;;;;;4991478;28;20121;-73
2022/03/16 07:05:16;;;;;;;8.48;3.90;;;;;;;;;;4990796;28;20117;-75
2022/03/16 07:07:48;;;;;;;6.43;3.72;;;;;;;;;;4986408;28;20062;-77
2022/03/16 07:10:16;;;;;;;7.32;3.50;;;;;;;;;;5003343;28;20042;-73
2022/03/16 07:12:44;;;;;;;6.03;3.25;;;;;;;;;;4997974;28;20042;-72
2022/03/16 07:15:12;;;;;;;5.20;2.80;;;;;;;;;;5102542;23;20080;-70
2022/03/16 07:17:40;;;;;;;6.22;2.92;;;;;;;;;;5035642;28;20055;-72
2022/03/16 07:20:08;;;;;;;11.02;3.45;;;;;;;;;;5017487;28;20048;-69
2022/03/16 07:22:37;;;;;;;8.52;3.30;;;;;;;;;;5035018;28;20064;-71
2022/03/16 07:25:19;;;;;;;;;;;;;;;;;;5020030;28;20118;-69
2022/03/16 07:27:49;;;;;;;8.75;3.60;;;;;;;;;;5035711;28;19995;-71
2022/03/16 07:30:18;;;;;;;11.15;3.55;;;;;;;;;;5034648;28;20053;-69
2022/03/16 07:32:46;;;;;;;5.80;2.80;;;;;;;;;;5034677;28;20048;-69
2022/03/16 07:35:13;;;;;;;10.52;3.50;;;;;;;;;;5034255;28;20052;-72
2022/03/16 07:37:42;;;;;;;7.20;3.20;;;;;;;;;;5034768;28;20109;-69
2022/03/16 07:40:12;;;;;;;10.57;3.97;;;;;;;;;;5034391;28;20406;-71
2022/03/16 07:42:45;;;;;;;6.63;3.65;;;;;;;;;;5034949;28;20071;-69
2022/03/16 07:45:15;;;;;;;6.07;2.92;;;;;;;;;;5034775;28;20037;-71
2022/03/16 07:47:45;;;;;;;9.30;3.25;;;;;;;;;;5034784;28;20042;-69
2022/03/16 07:50:12;;;;;;;10.02;2.85;;;;;;;;;;5035006;28;20046;-70
2022/03/16 07:52:39;;;;;;;6.68;2.80;;;;;;;;;;5034551;28;20559;-70
2022/03/16 07:55:07;;;;;;;7.90;3.30;;;;;;;;;;5034793;28;20124;-71
2022/03/16 07:57:40;;;;;;;8.77;2.83;;;;;;;;;;5034376;28;20499;-71
2022/03/16 08:00:10;;;;;;;7.68;2.65;;;;;;;;;;5016612;28;20041;-70
2022/03/16 08:02:40;;;;;;;6.85;2.60;;;;;;;;;;5016736;28;20053;-71
2022/03/16 08:05:07;;;;;;;4.95;2.78;;;;;;;;;;5034584;28;20162;-72
2022/03/16 08:07:37;;;;;;;5.20;2.70;;;;;;;;;;5033943;28;20038;-71
2022/03/16 08:10:06;;;;;;;6.10;2.90;;;;;;;;;;5033928;28;20048;-69
2022/03/16 08:12:34;;;;;;;6.57;2.85;;;;;;;;;;5034233;28;20033;-70
2022/03/16 08:15:02;;;;;;;3.78;2.28;;;;;;;;;;5033640;28;20053;-71
2022/03/16 08:17:30;;;;;;;3.33;2.20;;;;;;;;;;5016439;28;20072;-71
2022/03/16 08:19:58;;;;;;;3.65;2.00;;;;;;;;;;5033791;28;20052;-69
2022/03/16 08:22:26;;;;;;;4.85;2.22;;;;;;;;;;5015080;28;20523;-69
2022/03/16 08:24:55;;;;;;;7.38;2.63;;;;;;;;;;5033597;28;20480;-71
2022/03/16 08:27:24;;;;;;;5.28;2.50;;;;;;;;;;5034047;28;20045;-69
2022/03/16 08:29:51;;;;;;;8.00;3.25;;;;;;;;;;4999919;28;20041;-71
2022/03/16 08:32:19;;;;;;;3.75;2.20;;;;;;;;;;5033656;28;20146;-71
2022/03/16 08:34:50;;;;;;;4.78;1.90;;;;;;;;;;5033428;28;20091;-69
2022/03/16 08:37:18;;;;;;;4.70;1.90;;;;;;;;;;5033995;28;20132;-69
2022/03/16 08:39:52;;;;;;;3.65;2.13;;;;;;;;;;5015554;28;20048;-71
2022/03/16 08:42:20;;;;;;;6.00;2.88;;;;;;;;;;5032826;28;20041;-71
2022/03/16 08:44:47;;;;;;;9.20;2.30;;;;;;;;;;5033188;28;20045;-69
2022/03/16 08:47:20;;;;;;;6.63;2.33;;;;;;;;;;5013572;28;20060;-69
2022/03/16 08:49:48;;;;;;;4.72;2.22;;;;;;;;;;5014097;28;20217;-72
2022/03/16 08:52:16;;;;;;;8.35;2.45;;;;;;;;;;5013961;28;20081;-72
2022/03/16 08:54:44;;;;;;;4.28;2.35;;;;;;;;;;4996176;28;20046;-70
2022/03/16 08:57:12;;;;;;;5.43;1.90;;;;;;;;;;5014157;28;20064;-69
2022/03/16 08:59:41;;;;;;;8.45;1.90;;;;;;;;;;5013245;28;20077;-72
2022/03/16 09:02:09;;;;;;;5.20;2.10;;;;;;;;;;4995592;28;20042;-70
2022/03/16 09:04:38;;;;;;;8.07;2.05;;;;;;;;;;5024240;28;20049;-70
2022/03/16 09:07:08;;;;;;;4.05;1.98;;;;;;;;;;5030847;28;20419;-70
2022/03/16 09:09:40;;;;;;;7.30;2.10;;;;;;;;;;5033446;28;20049;-71
2022/03/16 09:12:11;;;;;;;3.67;2.15;;;;;;;;;;5033173;28;20506;-70
2022/03/16 09:14:39;;;;;;;3.53;2.22;;;;;;;;;;5032774;28;20056;-70
2022/03/16 09:17:07;;;;;;;4.03;2.00;;;;;;;;;;5033476;28;20038;-71
2022/03/16 09:19:37;;;;;;;3.80;1.98;;;;;;;;;;5033047;28;20091;-72
2022/03/16 09:22:04;;;;;;;4.50;2.33;;;;;;;;;;5032629;28;20124;-69
2022/03/16 09:24:32;;;;;;;4.57;2.10;;;;;;;;;;5032954;28;20518;-69
2022/03/16 09:27:01;;;;;;;5.43;2.53;;;;;;;;;;5032760;28;20467;-69
2022/03/16 09:29:29;;;;;;;6.10;2.40;;;;;;;;;;5031989;28;20045;-71
2022/03/16 09:32:05;;;;;;;4.78;2.60;;;;;;;;;;5031701;28;20084;-69
2022/03/16 09:34:35;;;;;;;4.55;2.60;;;;;;;;;;5015102;28;20045;-69
2022/03/16 09:37:03;;;;;;;7.47;2.55;;;;;;;;;;5033128;28;20048;-71
2022/03/16 09:39:31;;;;;;;4.30;2.42;;;;;;;;;;5032550;28;20077;-71
2022/03/16 09:41:59;;;;;;;6.85;2.20;;;;;;;;;;5032845;28;20046;-69
2022/03/16 09:44:30;;;;;;;5.43;2.03;;;;;;;;;;5032524;28;20044;-70
2022/03/16 09:47:02;;;;;;;7.30;2.60;;;;;;;;;;5032265;28;20124;-70
2022/03/16 09:49:30;;;;;;;4.95;2.40;;;;;;;;;;5032314;28;20052;-69
2022/03/16 09:51:58;;;;;;;4.53;2.85;;;;;;;;;;5014836;28;20420;-72
2022/03/16 09:54:27;;;;;;;3.97;2.22;;;;;;;;;;5015412;28;20480;-69
2022/03/16 09:56:56;;;;;;;5.70;2.50;;;;;;;;;;5032407;28;20041;-72
2022/03/16 09:59:23;;;;;;;7.28;2.40;;;;;;;;;;5032557;28;20041;-71
2022/03/16 10:02:00;;;;;;;4.38;2.10;;;;;;;;;;5014653;28;20047;-69
2022/03/16 10:04:30;;;;;;;4.93;2.10;;;;;;;;;;5032534;28;20198;-71
2022/03/16 10:07:01;;;;;;;4.75;2.15;;;;;;;;;;5014492;28;20041;-72
2022/03/16 10:15:18;;;;;;;5.03;1.90;;;;;;;;;;5031939;28;20141;-72
2022/03/16 10:17:50;;;;;;;2.93;2.17;;;;;;;;;;5031712;28;20099;-70
2022/03/16 10:20:23;;;;;;;3.47;2.10;;;;;;;;;;5032266;28;20083;-69
2022/03/16 10:23:10;;;;;;;8.75;2.53;;;;;;;;;;5031890;28;20407;-71
2022/03/16 10:25:39;;;;;;;3.90;1.98;;;;;;;;;;5032270;28;20063;-70
2022/03/16 10:28:12;;;;;;;4.28;2.10;;;;;;;;;;5015144;28;20045;-71
2022/03/16 10:30:50;;;;;;;5.43;2.03;;;;;;;;;;5032250;28;20081;-71
2022/03/16 10:33:19;;;;;;;3.42;1.92;;;;;;;;;;5031839;28;20564;-71
2022/03/16 10:35:56;;;;;;;4.95;2.20;;;;;;;;;;5031799;28;20088;-69
2022/03/16 10:38:24;;;;;;;3.90;1.77;;;;;;;;;;5032481;28;20037;-72
2022/03/16 10:40:54;;;;;;;9.30;2.05;;;;;;;;;;5034500;28;20029;-72
2022/03/16 10:49:01;;;;;;;5.75;2.03;;;;;;;;;;5030451;28;20058;-72
2022/03/16 10:51:28;;;;;;;5.53;1.80;;;;;;;;;;5016928;28;20430;-70
2022/03/16 10:54:15;;;;;;;5.95;2.20;;;;;;;;;;5015589;28;20066;-70
2022/03/16 10:56:45;;;;;;;7.70;2.00;;;;;;;;;;5016632;28;20396;-72
2022/03/16 10:59:14;;;;;;;12.63;1.88;;;;;;;;;;5016655;28;20038;-69
2022/03/16 11:01:42;;;;;;;4.97;2.10;;;;;;;;;;5016714;28;20045;-72
2022/03/16 11:04:10;;;;;;;3.47;1.90;;;;;;;;;;5016715;28;20034;-71
2022/03/16 11:06:39;;;;;;;4.57;1.95;;;;;;;;;;5016483;28;20054;-72
2022/03/16 11:09:10;;;;;;;4.55;1.95;;;;;;;;;;5015536;28;20080;-71
2022/03/16 11:14:27;;;;;;;5.20;2.00;;;;;;;;;;5015906;28;20058;-72
2022/03/16 11:16:57;;;;;;;6.40;2.30;;;;;;;;;;5015835;28;20116;-70
2022/03/16 11:19:25;;;;;;;4.65;2.00;;;;;;;;;;5013132;28;20042;-72
2022/03/16 11:21:56;;;;;;;5.97;2.40;;;;;;;;;;5016009;28;20042;-72
2022/03/16 11:24:25;;;;;;;8.13;2.10;;;;;;;;;;5015774;28;20043;-70
2022/03/16 11:27:17;;;;;;;4.68;2.47;;;;;;;;;;5015984;28;20136;-72
2022/03/16 11:30:05;;;;;;;3.88;2.03;;;;;;;;;;5015614;28;20037;-71
2022/03/16 11:32:40;;;;;;;3.40;2.10;;;;;;;;;;5020663;28;20049;-70
2022/03/16 11:35:10;;;;;;;3.90;2.40;;;;;;;;;;5032384;28;20033;-71
2022/03/16 11:37:37;;;;;;;4.38;2.20;;;;;;;;;;5035699;28;20516;-72
2022/03/16 11:40:10;;;;;;;4.53;2.10;;;;;;;;;;5035448;28;20033;-70
2022/03/16 11:42:40;;;;;;;4.72;2.20;;;;;;;;;;5034916;28;20489;-70
2022/03/16 11:45:27;;;;;;;4.65;2.55;;;;;;;;;;5035294;28;20048;-70
2022/03/16 11:47:54;;;;;;;4.75;2.50;;;;;;;;;;5032625;28;20469;-69
2022/03/16 11:50:22;;;;;;;5.05;2.50;;;;;;;;;;5034108;28;20431;-72
2022/03/16 11:53:01;;;;;;;6.68;2.60;;;;;;;;;;5034846;28;20124;-70
2022/03/16 11:55:38;;;;;;;7.50;2.47;;;;;;;;;;5017233;28;20118;-72
2022/03/16 11:58:38;;;;;;;5.82;2.38;;;;;;;;;;5034909;28;20512;-71
2022/03/16 12:01:24;;;;;;;7.63;2.90;;;;;;;;;;5024719;28;20112;-70
2022/03/16 12:04:19;;;;;;;3.97;2.30;;;;;;;;;;5017718;28;20388;-69
2022/03/16 12:07:13;;;;;;;6.35;1.90;;;;;;;;;;5034822;28;20072;-72
2022/03/16 12:09:42;;;;;;;3.95;1.85;;;;;;;;;;5010620;28;20065;-71
2022/03/16 12:14:58;;;;;;;4.43;2.40;;;;;;;;;;5034293;28;20057;-70
2022/03/16 12:17:26;;;;;;;7.05;2.50;;;;;;;;;;5034515;28;20111;-70
2022/03/16 12:20:09;;;;;;;4.38;2.10;;;;;;;;;;5034698;28;20042;-70
2022/03/16 12:22:36;;;;;;;;;;;;;;;;;;5034576;28;20128;-70
2022/03/16 12:25:27;;;;;;;7.35;2.38;;;;;;;;;;5033757;28;20322;-70
2022/03/16 12:31:00;;;;;;;8.25;2.67;;;;;;;;;;5034481;28;20503;-69
2022/03/16 12:33:50;;;;;;;4.68;2.60;;;;;;;;;;5029982;28;20048;-69
2022/03/16 12:36:25;;;;;;;6.18;2.80;;;;;;;;;;5015687;28;20053;-70
2022/03/16 12:38:57;;;;;;;7.15;2.95;;;;;;;;;;5032890;28;20053;-69
2022/03/16 12:44:13;;;;;;;9.77;3.63;;;;;;;;;;5031541;28;20109;-71
2022/03/16 12:46:41;;;;;;;9.85;4.22;;;;;;;;;;5034142;28;20049;-69
2022/03/16 12:49:11;;;;;;;12.82;4.10;;;;;;;;;;5016319;28;20477;-70
2022/03/16 12:51:44;;;;;;;4.65;2.95;;;;;;;;;;5034182;28;20052;-69
2022/03/16 12:54:20;;;;;;;7.80;3.20;;;;;;;;;;5033967;28;20034;-69
2022/03/16 12:56:52;;;;;;;9.75;3.58;;;;;;;;;;5014097;28;20136;-69
2022/03/16 12:59:22;;;;;;;9.25;3.10;;;;;;;;;;5032797;28;20095;-69
2022/03/16 13:01:53;;;;;;;10.60;3.53;;;;;;;;;;5032542;28;20053;-69
2022/03/16 13:04:23;;;;;;;10.98;3.20;;;;;;;;;;5032438;28;20040;-69
2022/03/16 13:06:55;;;;;;;8.02;3.15;;;;;;;;;;5033436;28;20121;-71
2022/03/16 13:09:26;;;;;;;7.53;2.90;;;;;;;;;;5033469;28;20068;-71
2022/03/16 13:12:21;;;;;;;6.47;3.08;;;;;;;;;;5015559;28;20045;-72
2022/03/16 13:14:50;;;;;;;6.75;2.90;;;;;;;;;;5030769;28;20071;-71
2022/03/16 13:17:21;;;;;;;9.00;3.45;;;;;;;;;;5033071;28;20045;-69
2022/03/16 13:19:53;;;;;;;5.45;2.55;;;;;;;;;;5033786;28;20432;-70
2022/03/16 13:22:26;;;;;;;6.73;2.63;;;;;;;;;;5033400;28;20076;-71
2022/03/16 13:24:55;;;;;;;10.13;3.17;;;;;;;;;;5033794;28;20439;-69
2022/03/16 13:27:25;;;;;;;7.78;3.13;;;;;;;;;;5015615;28;20484;-70
2022/03/16 13:29:54;;;;;;;6.85;3.08;;;;;;;;;;5032643;28;20385;-70
2022/03/16 13:32:34;;;;;;;7.38;3.13;;;;;;;;;;5033175;28;20055;-69
2022/03/16 13:35:10;;;;;;;7.28;2.95;;;;;;;;;;5033144;28;20053;-69
2022/03/16 13:37:48;;;;;;;11.10;3.38;;;;;;;;;;5015310;28;20084;-69
2022/03/16 13:40:18;;;;;;;9.02;3.70;;;;;;;;;;5015425;28;20133;-69
2022/03/16 13:42:47;;;;;;;6.55;2.80;;;;;;;;;;5021529;28;20042;-70
2022/03/16 13:45:30;;;;;;;7.90;3.35;;;;;;;;;;5009376;28;20045;-70
2022/03/16 13:48:06;;;;;;;6.47;2.90;;;;;;;;;;5013550;28;20121;-69
2022/03/16 13:50:34;;;;;;;8.40;2.20;;;;;;;;;;5022147;28;20117;-71
2022/03/16 13:53:19;;;;;;;7.10;2.50;;;;;;;;;;5020721;28;20034;-69
2022/03/16 13:55:49;;;;;;;5.20;2.40;;;;;;;;;;5022472;28;20056;-69
2022/03/16 13:58:18;;;;;;;4.65;2.17;;;;;;;;;;5032893;28;20461;-69
2022/03/16 14:00:47;;;;;;;4.53;2.22;;;;;;;;;;5021939;28;20042;-71
2022/03/16 14:03:21;;;;;;;5.03;2.80;;;;;;;;;;5012712;28;20042;-69
2022/03/16 14:05:50;;;;;;;3.67;2.20;;;;;;;;;;5012841;28;20080;-69
2022/03/16 14:08:18;;;;;;;4.97;2.35;;;;;;;;;;5012675;28;20061;-71
2022/03/16 14:10:47;;;;;;;7.82;2.97;;;;;;;;;;5012207;28;20064;-70
2022/03/16 14:13:17;;;;;;;7.45;2.60;;;;;;;;;;5012484;28;20108;-69
2022/03/16 14:15:44;;;;;;;6.28;2.63;;;;;;;;;;5012062;28;20536;-69
2022/03/16 14:18:18;;;;;;;4.80;2.47;;;;;;;;;;5012527;28;20041;-69
2022/03/16 14:20:51;;;;;;;7.80;2.63;;;;;;;;;;4979159;28;20393;-69
2022/03/16 14:23:22;;;;;;;5.40;2.53;;;;;;;;;;5022055;28;20069;-70
2022/03/16 14:25:51;;;;;;;7.18;2.97;;;;;;;;;;5031293;28;20045;-71
2022/03/16 14:28:19;;;;;;;5.47;3.00;;;;;;;;;;5027951;28;20099;-69
2022/03/16 14:30:50;;;;;;;10.57;3.13;;;;;;;;;;5032342;28;20037;-70
2022/03/16 14:33:22;;;;;;;7.32;2.72;;;;;;;;;;5014981;28;20133;-71
2022/03/16 14:35:57;;;;;;;11.55;2.80;;;;;;;;;;5031914;28;20040;-71
2022/03/16 14:38:26;;;;;;;9.02;2.58;;;;;;;;;;5025832;28;20124;-68
2022/03/16 14:40:55;;;;;;;7.32;2.80;;;;;;;;;;5031881;28;20042;-71
2022/03/16 14:43:23;;;;;;;5.70;2.67;;;;;;;;;;5032515;28;20037;-71
2022/03/16 14:45:51;;;;;;;4.68;2.70;;;;;;;;;;5032715;28;20041;-71
2022/03/16 14:48:19;;;;;;;10.90;3.05;;;;;;;;;;5032051;28;20045;-72
2022/03/16 14:50:51;;;;;;;10.30;3.00;;;;;;;;;;5032580;28;20103;-69
2022/03/16 14:53:19;;;;;;;8.30;3.25;;;;;;;;;;5032738;28;20159;-71
2022/03/16 14:55:47;;;;;;;9.93;3.35;;;;;;;;;;5031467;28;20046;-68
2022/03/16 14:58:21;;;;;;;3.60;2.97;;;;;;;;;;5033083;28;20060;-70
2022/03/16 15:00:49;;;;;;;6.47;2.90;;;;;;;;;;5031962;28;20117;-69
2022/03/16 15:03:18;;;;;;;8.23;3.28;;;;;;;;;;5032054;28;20048;-68
2022/03/16 15:05:46;;;;;;;8.63;3.05;;;;;;;;;;5032010;28;20473;-71
2022/03/16 15:08:14;;;;;;;12.63;3.20;;;;;;;;;;5031895;28;20033;-70
2022/03/16 15:10:42;;;;;;;8.30;3.83;;;;;;;;;;5010891;28;20051;-68
2022/03/16 15:13:10;;;;;;;8.52;3.22;;;;;;;;;;5031655;28;20531;-71
2022/03/16 15:15:37;;;;;;;7.07;3.03;;;;;;;;;;5031010;28;20074;-71
2022/03/16 15:18:05;;;;;;;12.90;3.10;;;;;;;;;;5031154;28;20136;-71